Time;durP1;ratioP1;P1;durP2;ratioP2;P2;SDS_P1;SDS_P2;PMS_P1;PMS_P2;Temp;Humidity;BMP_temperature;BMP_pressure;BME280_temperature;BME280_humidity;BME280_pressure;Samples;Min_cycle;Max_cycle;Signal;HPM_P1;HPM_P2
2021/11/21 00:01:34;;;;;;;1.33;1.23;;;7.90;99.90;;;;;;5049644;28;20195;-71
2021/11/21 00:04:00;;;;;;;0.87;0.87;;;7.90;99.90;;;;;;5051665;28;20574;-72
2021/11/21 00:06:25;;;;;;;2.30;1.80;;;7.90;99.90;;;;;;5051159;28;20253;-72
2021/11/21 00:08:52;;;;;;;2.30;1.30;;;7.90;99.90;;;;;;5049637;28;20174;-71
2021/11/21 00:11:19;;;;;;;1.37;1.03;;;7.90;99.90;;;;;;5049988;28;20453;-71
2021/11/21 00:13:48;;;;;;;6.30;2.90;;;8.00;99.90;;;;;;5049569;28;20483;-71
2021/11/21 00:16:13;;;;;;;0.77;0.77;;;8.00;99.90;;;;;;5048364;28;20565;-71
2021/11/21 00:18:40;;;;;;;2.50;1.73;;;7.90;99.90;;;;;;5040169;28;20981;-71
2021/11/21 00:21:06;;;;;;;0.70;0.50;;;7.90;99.90;;;;;;5050918;28;20190;-71
2021/11/21 00:23:32;;;;;;;4.00;2.50;;;7.90;99.90;;;;;;5050362;28;20786;-71
2021/11/21 00:25:57;;;;;;;5.23;2.00;;;7.90;99.90;;;;;;5051171;28;20417;-72
2021/11/21 00:28:23;;;;;;;1.40;1.30;;;7.80;99.90;;;;;;5050548;28;20441;-71
2021/11/21 00:30:49;;;;;;;1.87;1.77;;;7.80;99.90;;;;;;5051978;28;20203;-71
2021/11/21 00:33:14;;;;;;;1.63;1.53;;;7.80;99.90;;;;;;5050293;28;20269;-71
2021/11/21 00:35:40;;;;;;;2.33;2.23;;;7.80;99.90;;;;;;5053253;28;20224;-71
2021/11/21 00:38:05;;;;;;;0.70;0.60;;;7.80;99.90;;;;;;5048699;28;20177;-72
2021/11/21 00:40:31;;;;;;;0.70;0.50;;;7.80;99.90;;;;;;5050506;28;20274;-71
2021/11/21 00:42:57;;;;;;;0.97;0.90;;;7.80;99.90;;;;;;5060152;28;20249;-71
2021/11/21 00:45:24;;;;;;;0.70;0.60;;;7.80;99.90;;;;;;5048677;28;20869;-71
2021/11/21 00:47:50;;;;;;;1.47;1.10;;;7.80;99.90;;;;;;5048793;28;20447;-71
2021/11/21 00:50:23;;;;;;;0.70;0.50;;;7.80;99.90;;;;;;5065571;28;20532;-73
2021/11/21 00:52:48;;;;;;;4.17;2.07;;;7.80;99.90;;;;;;5047878;28;20178;-71
2021/11/21 00:55:16;;;;;;;8.33;2.20;;;7.80;99.90;;;;;;5047916;28;20467;-71
2021/11/21 00:57:44;;;;;;;4.23;2.77;;;7.80;99.90;;;;;;5044473;28;20206;-72
2021/11/21 01:00:12;;;;;;;0.80;0.80;;;7.90;99.90;;;;;;5045956;28;20461;-72
2021/11/21 01:02:39;;;;;;;3.23;3.13;;;7.90;99.90;;;;;;5048218;28;20526;-72
2021/11/21 01:05:07;;;;;;;1.97;1.87;;;7.90;99.90;;;;;;5049798;28;20471;-71
2021/11/21 01:07:36;;;;;;;2.10;2.00;;;7.90;99.90;;;;;;5052653;28;20914;-72
2021/11/21 01:10:04;;;;;;;1.30;1.20;;;7.90;99.90;;;;;;5047638;28;20449;-71
2021/11/21 01:12:30;;;;;;;0.70;0.60;;;8.00;99.90;;;;;;5053385;28;20967;-71
2021/11/21 01:14:55;;;;;;;1.17;1.17;;;8.00;99.90;;;;;;5051852;28;20433;-73
2021/11/21 01:17:21;;;;;;;1.93;1.83;;;8.10;99.90;;;;;;5050755;28;20543;-70
2021/11/21 01:19:46;;;;;;;2.03;1.90;;;8.10;99.90;;;;;;5053783;28;20567;-71
2021/11/21 01:22:12;;;;;;;1.20;0.80;;;8.20;99.90;;;;;;5053826;28;20198;-71
2021/11/21 01:24:38;;;;;;;3.40;2.10;;;8.30;99.90;;;;;;5053542;28;20189;-72
2021/11/21 01:27:03;;;;;;;2.70;2.30;;;8.30;99.90;;;;;;5053058;28;20183;-72
2021/11/21 01:29:29;;;;;;;1.00;0.90;;;8.40;99.90;;;;;;5052985;28;20290;-72
2021/11/21 01:31:55;;;;;;;3.87;1.60;;;8.40;99.90;;;;;;5051895;28;20237;-72
2021/11/21 01:34:21;;;;;;;1.23;1.13;;;8.40;99.90;;;;;;5053407;28;20445;-70
2021/11/21 01:36:46;;;;;;;0.80;0.80;;;8.40;99.90;;;;;;5050676;28;20179;-71
2021/11/21 01:39:12;;;;;;;1.10;1.00;;;8.40;99.90;;;;;;5050420;28;20206;-71
2021/11/21 01:41:38;;;;;;;1.00;0.90;;;8.40;99.90;;;;;;5051176;28;20221;-71
2021/11/21 01:44:04;;;;;;;3.10;2.03;;;8.50;99.90;;;;;;5052886;28;20922;-71
2021/11/21 01:46:33;;;;;;;0.70;0.50;;;8.40;99.90;;;;;;5051425;28;20578;-70
2021/11/21 01:48:58;;;;;;;0.70;0.60;;;8.50;99.90;;;;;;5051564;28;20818;-72
2021/11/21 01:51:24;;;;;;;3.07;1.67;;;8.40;99.90;;;;;;5051832;28;20425;-72
2021/11/21 01:53:49;;;;;;;1.17;1.07;;;8.40;99.90;;;;;;5051547;28;20171;-71
2021/11/21 01:56:15;;;;;;;1.07;1.00;;;8.40;99.90;;;;;;5049954;28;20236;-72
2021/11/21 01:58:40;;;;;;;1.93;0.80;;;8.40;99.90;;;;;;5052084;28;20179;-72
2021/11/21 02:01:06;;;;;;;1.17;0.90;;;8.50;99.90;;;;;;5052461;28;20272;-72
2021/11/21 02:03:32;;;;;;;1.43;1.27;;;8.50;99.90;;;;;;5052964;28;20175;-72
2021/11/21 02:05:57;;;;;;;1.57;1.47;;;8.50;99.90;;;;;;5051780;28;20197;-72
2021/11/21 02:08:23;;;;;;;3.10;0.90;;;8.50;99.90;;;;;;5049756;28;20175;-72
2021/11/21 02:10:49;;;;;;;0.80;0.73;;;8.60;99.90;;;;;;5061940;28;20670;-72
2021/11/21 02:13:14;;;;;;;11.57;2.17;;;8.60;99.90;;;;;;5051727;28;20249;-72
2021/11/21 02:15:43;;;;;;;2.50;0.93;;;8.60;99.90;;;;;;5049246;28;20636;-72
2021/11/21 02:18:09;;;;;;;0.90;0.87;;;8.50;99.90;;;;;;5050883;28;20265;-72
2021/11/21 02:20:34;;;;;;;1.83;1.73;;;8.50;99.90;;;;;;5052305;28;20556;-71
2021/11/21 02:23:05;;;;;;;1.77;1.67;;;8.50;99.90;;;;;;5052205;28;20203;-71
2021/11/21 02:25:31;;;;;;;4.80;2.87;;;8.50;99.90;;;;;;5051629;28;20206;-71
2021/11/21 02:27:57;;;;;;;0.90;0.80;;;8.40;99.90;;;;;;5051200;28;20460;-70
2021/11/21 02:30:22;;;;;;;2.30;2.10;;;8.40;99.90;;;;;;5049205;28;20245;-71
2021/11/21 02:32:52;;;;;;;1.40;1.27;;;8.50;99.90;;;;;;5051749;28;20225;-70
2021/11/21 02:35:20;;;;;;;0.80;0.80;;;8.40;99.90;;;;;;5051204;28;20198;-71
2021/11/21 02:37:46;;;;;;;1.73;1.50;;;8.40;99.90;;;;;;5051717;28;20452;-71
2021/11/21 02:40:13;;;;;;;1.53;1.43;;;8.40;99.90;;;;;;5050244;28;20556;-71
2021/11/21 02:42:38;;;;;;;3.87;1.43;;;8.50;99.90;;;;;;5051263;28;20210;-71
2021/11/21 02:45:07;;;;;;;0.70;0.53;;;8.50;99.90;;;;;;5050122;28;20437;-71
2021/11/21 02:47:34;;;;;;;0.73;0.73;;;8.50;99.90;;;;;;5048837;28;20171;-72
2021/11/21 02:50:04;;;;;;;0.70;0.50;;;8.50;99.90;;;;;;5040890;28;20441;-71
2021/11/21 02:52:30;;;;;;;1.03;0.93;;;8.50;99.90;;;;;;5051957;28;20436;-71
2021/11/21 02:54:57;;;;;;;5.70;1.00;;;8.60;99.90;;;;;;5049745;28;20430;-71
2021/11/21 02:57:24;;;;;;;0.70;0.50;;;8.50;99.90;;;;;;5049607;28;20960;-72
2021/11/21 02:59:50;;;;;;;1.27;0.60;;;8.60;99.90;;;;;;5049668;28;20824;-72
2021/11/21 03:02:18;;;;;;;2.40;2.30;;;8.50;99.90;;;;;;5048461;28;20985;-72
2021/11/21 03:04:45;;;;;;;2.20;1.80;;;8.60;99.90;;;;;;5050006;28;20480;-71
2021/11/21 03:07:11;;;;;;;2.07;1.90;;;8.60;99.90;;;;;;5050870;28;20425;-71
2021/11/21 03:09:36;;;;;;;1.10;0.93;;;8.60;99.90;;;;;;5064195;28;20536;-72
2021/11/21 03:12:02;;;;;;;0.80;0.77;;;8.50;99.90;;;;;;5051330;28;20269;-71
2021/11/21 03:14:28;;;;;;;0.93;0.93;;;8.40;99.90;;;;;;5050963;28;20639;-72
2021/11/21 03:16:53;;;;;;;3.20;2.90;;;8.40;99.90;;;;;;5051249;28;20171;-71
2021/11/21 03:19:19;;;;;;;1.90;1.80;;;8.50;99.90;;;;;;5050967;28;20566;-71
2021/11/21 03:21:44;;;;;;;2.80;1.87;;;8.40;99.90;;;;;;5050510;28;20195;-72
2021/11/21 03:24:10;;;;;;;1.40;1.27;;;8.40;99.90;;;;;;5050570;28;20179;-71
2021/11/21 03:26:36;;;;;;;1.90;1.23;;;8.40;99.90;;;;;;5050001;28;20215;-71
2021/11/21 03:29:02;;;;;;;2.60;2.50;;;8.40;99.90;;;;;;5052324;28;20329;-71
2021/11/21 03:31:28;;;;;;;0.80;0.80;;;8.40;99.90;;;;;;5049875;28;20186;-72
2021/11/21 03:33:53;;;;;;;2.43;2.23;;;8.40;99.90;;;;;;5049030;28;20437;-72
2021/11/21 03:36:19;;;;;;;7.40;2.20;;;8.40;99.90;;;;;;5049661;28;20694;-71
2021/11/21 03:38:45;;;;;;;3.20;2.90;;;8.40;99.90;;;;;;5050943;28;20175;-72
2021/11/21 03:41:10;;;;;;;0.83;0.77;;;8.40;99.90;;;;;;5050392;28;20632;-72
2021/11/21 03:43:36;;;;;;;3.07;2.87;;;8.40;99.90;;;;;;5049507;28;21650;-72
2021/11/21 03:46:02;;;;;;;3.93;2.23;;;8.40;99.90;;;;;;5049233;28;20586;-72
2021/11/21 03:48:28;;;;;;;2.73;1.00;;;8.40;99.90;;;;;;5049542;28;20170;-72
2021/11/21 03:50:53;;;;;;;1.23;1.13;;;8.40;99.90;;;;;;5049474;28;20457;-71
2021/11/21 03:53:19;;;;;;;0.90;0.90;;;8.40;99.90;;;;;;5050034;28;20551;-71
2021/11/21 03:55:45;;;;;;;0.70;0.60;;;8.40;99.90;;;;;;5050487;28;20275;-71
2021/11/21 03:58:12;;;;;;;1.97;1.57;;;8.40;99.90;;;;;;5050797;28;20449;-72
2021/11/21 04:00:38;;;;;;;0.80;0.60;;;8.30;99.90;;;;;;5050040;28;20453;-71
2021/11/21 04:03:05;;;;;;;4.83;1.87;;;8.30;99.90;;;;;;5047270;28;20460;-71
2021/11/21 04:05:31;;;;;;;0.70;0.50;;;8.20;99.90;;;;;;5050298;28;20538;-71
2021/11/21 04:07:57;;;;;;;1.77;1.10;;;8.20;99.90;;;;;;5051049;28;20442;-71
2021/11/21 04:10:22;;;;;;;1.13;1.03;;;8.20;99.90;;;;;;5047077;28;20660;-71
2021/11/21 04:12:48;;;;;;;1.10;1.00;;;8.10;99.90;;;;;;5049854;28;20191;-71
2021/11/21 04:15:14;;;;;;;0.70;0.60;;;8.10;99.90;;;;;;5048991;28;20186;-71
2021/11/21 04:17:41;;;;;;;0.70;0.50;;;8.10;99.90;;;;;;5049899;28;20209;-71
2021/11/21 04:20:09;;;;;;;3.23;3.07;;;8.10;99.90;;;;;;5048631;28;20502;-71
2021/11/21 04:22:34;;;;;;;1.10;1.07;;;8.10;99.90;;;;;;5048988;28;20461;-71
2021/11/21 04:25:00;;;;;;;0.77;0.60;;;8.10;99.90;;;;;;5047845;28;20445;-71
2021/11/21 04:27:27;;;;;;;0.87;0.87;;;8.10;99.90;;;;;;5050637;28;20183;-71
2021/11/21 04:29:54;;;;;;;1.37;0.80;;;8.20;99.90;;;;;;5049123;28;20684;-71
2021/11/21 04:32:20;;;;;;;1.70;1.60;;;8.20;99.90;;;;;;5050434;28;20433;-71
2021/11/21 04:34:45;;;;;;;2.03;1.63;;;8.20;99.90;;;;;;5049276;28;20945;-72
2021/11/21 04:37:11;;;;;;;0.70;0.60;;;8.20;99.90;;;;;;5050874;28;20270;-71
2021/11/21 04:39:36;;;;;;;0.70;0.60;;;8.20;99.90;;;;;;5051495;28;20201;-71
2021/11/21 04:42:02;;;;;;;1.60;1.50;;;8.20;99.90;;;;;;5052718;28;20627;-72
2021/11/21 04:44:28;;;;;;;0.70;0.70;;;8.20;99.90;;;;;;5053596;28;20183;-71
2021/11/21 04:46:53;;;;;;;1.27;0.80;;;8.20;99.90;;;;;;5053419;28;20530;-71
2021/11/21 04:49:19;;;;;;;8.70;1.43;;;8.20;99.90;;;;;;5053865;28;20281;-71
2021/11/21 04:51:45;;;;;;;0.70;0.50;;;8.20;99.90;;;;;;5068019;28;20183;-71
2021/11/21 04:54:16;;;;;;;4.30;2.20;;;8.20;99.90;;;;;;5053503;28;20261;-71
2021/11/21 04:56:42;;;;;;;1.33;1.23;;;8.10;99.90;;;;;;5052387;28;20190;-71
2021/11/21 04:59:08;;;;;;;1.10;1.00;;;8.10;99.90;;;;;;5053826;28;20463;-71
2021/11/21 05:01:33;;;;;;;1.60;1.47;;;8.10;99.90;;;;;;5052917;28;20966;-72
2021/11/21 05:03:59;;;;;;;1.73;1.40;;;8.20;99.90;;;;;;5053813;28;20167;-71
2021/11/21 05:06:25;;;;;;;1.43;1.33;;;8.10;99.90;;;;;;5051774;28;20179;-71
2021/11/21 05:08:50;;;;;;;2.30;1.77;;;8.10;99.90;;;;;;5048661;28;20217;-71
2021/11/21 05:11:16;;;;;;;0.87;0.87;;;8.10;99.90;;;;;;5051886;28;20557;-71
2021/11/21 05:13:41;;;;;;;0.70;0.50;;;8.10;99.90;;;;;;5053675;28;20197;-71
2021/11/21 05:16:07;;;;;;;8.90;1.80;;;8.10;99.90;;;;;;5052942;28;20185;-71
2021/11/21 05:18:32;;;;;;;1.30;1.20;;;8.10;99.90;;;;;;5053006;28;20183;-71
2021/11/21 05:20:58;;;;;;;0.70;0.50;;;8.10;99.90;;;;;;5051750;28;20583;-72
2021/11/21 05:23:23;;;;;;;0.70;0.50;;;8.10;99.90;;;;;;5052495;28;20281;-71
2021/11/21 05:25:49;;;;;;;0.70;0.50;;;8.00;99.90;;;;;;5052920;28;20171;-72
2021/11/21 05:28:15;;;;;;;1.63;1.53;;;8.00;99.90;;;;;;5067260;28;20613;-71
2021/11/21 05:30:40;;;;;;;2.60;1.37;;;7.90;99.90;;;;;;5053589;28;20205;-71
2021/11/21 05:33:06;;;;;;;0.70;0.50;;;7.90;99.90;;;;;;5052760;28;20183;-71
2021/11/21 05:35:32;;;;;;;0.70;0.60;;;7.90;99.90;;;;;;5051450;28;20183;-71
2021/11/21 05:37:57;;;;;;;2.23;1.23;;;7.80;99.90;;;;;;5053119;28;20185;-71
2021/11/21 05:40:23;;;;;;;0.70;0.50;;;7.80;99.90;;;;;;5050800;28;20206;-71
2021/11/21 05:42:49;;;;;;;0.70;0.60;;;7.80;99.90;;;;;;5053142;28;20213;-71
2021/11/21 05:45:15;;;;;;;1.40;1.30;;;7.90;99.90;;;;;;5050519;28;20211;-71
2021/11/21 05:47:41;;;;;;;0.70;0.60;;;7.90;99.90;;;;;;5051489;28;20269;-72
2021/11/21 05:50:12;;;;;;;5.47;1.57;;;7.90;99.90;;;;;;5052806;28;20844;-71
2021/11/21 05:52:42;;;;;;;5.93;0.73;;;7.90;99.90;;;;;;5053939;28;20596;-71
2021/11/21 05:55:08;;;;;;;2.10;1.90;;;8.00;99.90;;;;;;5050973;28;20438;-71
2021/11/21 05:57:34;;;;;;;3.43;1.43;;;8.00;99.90;;;;;;5053949;28;20565;-72
2021/11/21 06:00:00;;;;;;;0.70;0.53;;;8.00;99.90;;;;;;5052230;28;20449;-71
2021/11/21 06:02:26;;;;;;;0.70;0.50;;;8.10;99.90;;;;;;5048851;28;20465;-71
2021/11/21 06:04:51;;;;;;;0.70;0.50;;;8.10;99.90;;;;;;5051476;28;20450;-71
2021/11/21 06:07:17;;;;;;;0.70;0.50;;;8.10;99.90;;;;;;5051605;28;20212;-71
2021/11/21 06:09:42;;;;;;;1.13;1.10;;;8.00;99.90;;;;;;5052763;28;20203;-72
2021/11/21 06:12:08;;;;;;;0.90;0.90;;;8.10;99.90;;;;;;5047172;28;20190;-71
2021/11/21 06:14:34;;;;;;;0.70;0.50;;;8.10;99.90;;;;;;5051865;28;20183;-71
2021/11/21 06:16:59;;;;;;;0.80;0.70;;;8.10;99.90;;;;;;5050440;28;20557;-71
2021/11/21 06:19:25;;;;;;;0.93;0.90;;;8.10;99.90;;;;;;5051704;28;20834;-71
2021/11/21 06:21:51;;;;;;;0.70;0.50;;;8.00;99.90;;;;;;5067614;28;20203;-71
2021/11/21 06:24:17;;;;;;;0.70;0.50;;;8.10;99.90;;;;;;5051874;28;20437;-72
2021/11/21 06:26:43;;;;;;;0.70;0.50;;;8.10;99.90;;;;;;5051058;28;20206;-71
2021/11/21 06:29:08;;;;;;;2.30;1.90;;;8.10;99.90;;;;;;5051290;28;20202;-71
2021/11/21 06:31:34;;;;;;;0.70;0.50;;;8.10;99.90;;;;;;5050291;28;20941;-72
2021/11/21 06:34:00;;;;;;;0.70;0.70;;;8.10;99.90;;;;;;5050419;28;20175;-71
2021/11/21 06:36:25;;;;;;;1.00;0.90;;;8.10;99.90;;;;;;5051176;28;20182;-71
2021/11/21 06:38:51;;;;;;;1.80;1.00;;;8.10;99.90;;;;;;5051967;28;20175;-71
2021/11/21 06:41:19;;;;;;;0.70;0.60;;;8.20;99.90;;;;;;5067185;28;20198;-72
2021/11/21 06:43:45;;;;;;;0.70;0.43;;;8.20;99.90;;;;;;5049322;28;20426;-72
2021/11/21 06:46:10;;;;;;;0.97;0.90;;;8.30;99.90;;;;;;5049024;28;20441;-71
2021/11/21 06:48:36;;;;;;;0.70;0.60;;;8.30;99.90;;;;;;5051408;28;20214;-71
2021/11/21 06:51:04;;;;;;;0.70;0.50;;;8.30;99.90;;;;;;5050643;28;20211;-71
2021/11/21 06:53:30;;;;;;;0.70;0.60;;;8.30;99.90;;;;;;5052148;28;20174;-71
2021/11/21 06:55:56;;;;;;;0.90;0.90;;;8.20;99.90;;;;;;5049423;28;20528;-70
2021/11/21 06:58:22;;;;;;;8.30;1.97;;;8.20;99.90;;;;;;5047965;28;21062;-70
2021/11/21 07:00:47;;;;;;;0.70;0.60;;;8.20;99.90;;;;;;5049263;28;20187;-70
2021/11/21 07:03:13;;;;;;;0.70;0.50;;;8.20;99.90;;;;;;5051236;28;20209;-70
2021/11/21 07:05:38;;;;;;;1.07;0.70;;;8.20;99.90;;;;;;5050772;28;20178;-70
2021/11/21 07:08:04;;;;;;;2.10;1.70;;;8.30;99.90;;;;;;5050901;28;20171;-70
2021/11/21 07:10:30;;;;;;;1.00;0.90;;;8.20;99.90;;;;;;5048497;28;20191;-70
2021/11/21 07:12:55;;;;;;;0.70;0.50;;;8.30;99.90;;;;;;5050711;28;20840;-71
2021/11/21 07:15:21;;;;;;;0.83;0.83;;;8.30;99.90;;;;;;5043511;28;20226;-70
2021/11/21 07:17:52;;;;;;;1.67;1.37;;;8.30;99.90;;;;;;5050253;28;20171;-71
2021/11/21 07:20:18;;;;;;;0.70;0.50;;;8.30;99.90;;;;;;5049911;28;20199;-70
2021/11/21 07:22:48;;;;;;;2.30;1.87;;;8.40;99.90;;;;;;5052131;28;20449;-71
2021/11/21 07:25:16;;;;;;;1.13;1.00;;;8.30;99.90;;;;;;5047036;28;20296;-72
2021/11/21 07:27:42;;;;;;;0.70;0.60;;;8.40;99.90;;;;;;5050711;28;20425;-71
2021/11/21 07:30:09;;;;;;;1.43;1.33;;;8.30;99.90;;;;;;5065764;28;20459;-71
2021/11/21 07:32:35;;;;;;;0.80;0.70;;;8.30;99.90;;;;;;5051584;28;20868;-71
2021/11/21 07:35:00;;;;;;;1.10;1.00;;;8.40;99.90;;;;;;5050018;28;20441;-71
2021/11/21 07:37:26;;;;;;;0.80;0.80;;;8.30;99.90;;;;;;5051136;28;20182;-71
2021/11/21 07:39:51;;;;;;;1.37;1.03;;;8.30;99.90;;;;;;5055708;28;20214;-71
2021/11/21 07:42:17;;;;;;;0.70;0.50;;;8.40;99.90;;;;;;5055156;28;20199;-71
2021/11/21 07:44:43;;;;;;;0.70;0.63;;;8.40;99.90;;;;;;5051104;28;20179;-71
2021/11/21 07:47:09;;;;;;;1.43;1.33;;;8.50;99.90;;;;;;5048972;28;20495;-71
2021/11/21 07:49:34;;;;;;;0.70;0.50;;;8.50;99.90;;;;;;5051030;28;20187;-71
2021/11/21 07:52:00;;;;;;;0.70;0.67;;;8.50;99.90;;;;;;5052353;28;20186;-71
2021/11/21 07:54:25;;;;;;;5.20;3.27;;;8.50;99.90;;;;;;5050863;28;20174;-71
2021/11/21 07:56:51;;;;;;;0.70;0.60;;;8.60;99.90;;;;;;5050180;28;20248;-71
2021/11/21 07:59:16;;;;;;;2.17;1.90;;;8.60;99.90;;;;;;5051118;28;20209;-71
2021/11/21 08:01:42;;;;;;;0.97;0.87;;;8.50;99.90;;;;;;5049997;28;20194;-72
2021/11/21 08:04:10;;;;;;;0.90;0.80;;;8.60;99.90;;;;;;5051140;28;20549;-70
2021/11/21 08:06:35;;;;;;;0.70;0.70;;;8.50;99.90;;;;;;5049980;28;20869;-70
2021/11/21 08:09:02;;;;;;;0.70;0.50;;;8.60;99.90;;;;;;5050003;28;20543;-71
2021/11/21 08:11:27;;;;;;;0.90;0.80;;;8.50;99.90;;;;;;5048668;28;20172;-71
2021/11/21 08:13:53;;;;;;;3.30;1.40;;;8.60;99.90;;;;;;5051296;28;20425;-71
2021/11/21 08:16:18;;;;;;;0.70;0.60;;;8.60;99.90;;;;;;5052951;28;20183;-71
2021/11/21 08:18:44;;;;;;;1.63;1.17;;;8.60;99.90;;;;;;5053879;28;21484;-71
2021/11/21 08:21:09;;;;;;;1.57;1.13;;;8.60;99.90;;;;;;5054059;28;20175;-72
2021/11/21 08:23:35;;;;;;;1.93;1.80;;;8.50;99.90;;;;;;5054494;28;20238;-71
2021/11/21 08:26:01;;;;;;;2.93;2.73;;;8.50;99.90;;;;;;5055807;28;20221;-71
2021/11/21 08:28:26;;;;;;;0.70;0.57;;;8.60;99.90;;;;;;5055280;28;20179;-71
2021/11/21 08:30:52;;;;;;;1.53;0.90;;;8.70;99.90;;;;;;5057765;28;20224;-72
2021/11/21 08:33:17;;;;;;;3.37;3.07;;;8.60;99.90;;;;;;5058341;28;20670;-71
2021/11/21 08:35:43;;;;;;;2.90;1.07;;;8.70;99.90;;;;;;5052981;28;20681;-71
2021/11/21 08:38:09;;;;;;;1.67;0.97;;;8.60;99.90;;;;;;5054954;28;20308;-71
2021/11/21 08:40:35;;;;;;;2.10;1.20;;;8.70;99.90;;;;;;5053820;28;20660;-71
2021/11/21 08:43:01;;;;;;;0.70;0.50;;;8.60;99.90;;;;;;5051667;28;20195;-72
2021/11/21 08:45:29;;;;;;;1.73;0.80;;;8.60;99.90;;;;;;5053996;28;20174;-71
2021/11/21 08:47:55;;;;;;;3.13;1.63;;;8.60;99.90;;;;;;5055090;28;20425;-70
2021/11/21 08:50:21;;;;;;;1.00;0.80;;;8.60;99.90;;;;;;5051251;28;20821;-70
2021/11/21 08:52:46;;;;;;;2.58;2.38;;;8.70;99.90;;;;;;5053524;28;20419;-69
2021/11/21 08:55:13;;;;;;;2.33;1.17;;;8.90;99.90;;;;;;5057885;28;20262;-70
2021/11/21 08:57:39;;;;;;;1.53;1.40;;;9.00;99.90;;;;;;5060290;28;20190;-70
2021/11/21 09:00:07;;;;;;;1.73;1.43;;;9.10;99.90;;;;;;5054380;28;20453;-70
2021/11/21 09:02:37;;;;;;;0.90;0.90;;;9.20;99.90;;;;;;5052575;28;20514;-69
2021/11/21 09:05:06;;;;;;;1.67;1.57;;;9.30;99.90;;;;;;5055718;28;20790;-70
2021/11/21 09:07:37;;;;;;;1.20;0.80;;;9.30;99.90;;;;;;5056813;28;20441;-69
2021/11/21 09:10:08;;;;;;;1.00;1.00;;;9.40;99.90;;;;;;5049661;28;20945;-70
2021/11/21 09:12:35;;;;;;;1.20;0.83;;;9.30;99.90;;;;;;5054484;28;20433;-70
2021/11/21 09:15:00;;;;;;;1.07;1.07;;;9.40;99.90;;;;;;5053949;28;20432;-70
2021/11/21 09:17:26;;;;;;;0.83;0.83;;;9.40;99.90;;;;;;5058015;28;20441;-70
2021/11/21 09:19:51;;;;;;;0.80;0.60;;;9.40;99.90;;;;;;5052308;28;20202;-69
2021/11/21 09:22:17;;;;;;;1.20;0.97;;;9.30;99.90;;;;;;5051812;28;20202;-70
2021/11/21 09:24:43;;;;;;;1.30;1.20;;;9.30;99.90;;;;;;5054518;28;20236;-70
2021/11/21 09:27:14;;;;;;;0.70;0.50;;;9.30;99.90;;;;;;5055131;28;20175;-70
2021/11/21 09:29:43;;;;;;;1.07;0.97;;;9.20;99.90;;;;;;5057275;28;20191;-70
2021/11/21 09:32:10;;;;;;;2.97;1.87;;;9.10;99.90;;;;;;5057708;28;20464;-70
2021/11/21 09:34:36;;;;;;;1.53;0.80;;;9.10;99.90;;;;;;5056128;28;20432;-70
2021/11/21 09:37:02;;;;;;;2.10;1.90;;;9.10;99.90;;;;;;5057504;28;20441;-69
2021/11/21 09:39:27;;;;;;;1.27;0.93;;;9.10;99.90;;;;;;5058359;28;20719;-70
2021/11/21 09:41:53;;;;;;;0.70;0.50;;;9.20;99.90;;;;;;5060021;28;20202;-70
2021/11/21 09:44:19;;;;;;;0.70;0.50;;;9.20;99.90;;;;;;5056762;28;20594;-70
2021/11/21 09:46:45;;;;;;;5.03;1.60;;;9.30;99.90;;;;;;5050161;28;20186;-70
2021/11/21 09:49:12;;;;;;;0.70;0.60;;;9.40;99.90;;;;;;5056055;28;20460;-70
2021/11/21 09:51:38;;;;;;;1.57;1.47;;;9.50;99.90;;;;;;5050592;28;20332;-70
2021/11/21 09:54:04;;;;;;;0.73;0.67;;;9.50;99.90;;;;;;5052675;28;20444;-69
2021/11/21 09:56:30;;;;;;;0.70;0.50;;;9.50;99.90;;;;;;5052224;28;20449;-70
2021/11/21 09:58:56;;;;;;;1.13;1.03;;;9.50;99.90;;;;;;5051522;28;20517;-70
2021/11/21 10:01:51;;;;;;;0.80;0.70;;;9.50;99.90;;;;;;5053505;28;20445;-70
2021/11/21 10:04:18;;;;;;;0.70;0.60;;;9.60;99.90;;;;;;5038834;28;20209;-70
2021/11/21 10:06:48;;;;;;;3.37;1.90;;;9.60;99.90;;;;;;5051099;28;20457;-70
2021/11/21 10:09:19;;;;;;;1.63;1.53;;;9.60;99.90;;;;;;5053420;28;20472;-70
2021/11/21 10:12:03;;;;;;;3.27;2.97;;;9.70;99.90;;;;;;5046341;28;20532;-70
2021/11/21 10:14:30;;;;;;;0.70;0.60;;;9.80;99.90;;;;;;5052903;28;20443;-70
2021/11/21 10:16:56;;;;;;;1.47;1.03;;;9.90;99.90;;;;;;5052971;28;20445;-70
2021/11/21 10:19:21;;;;;;;0.70;0.50;;;9.90;99.90;;;;;;5048930;28;20853;-70
2021/11/21 10:21:56;;;;;;;1.13;1.03;;;9.90;99.90;;;;;;5051452;28;20332;-70
2021/11/21 10:24:31;;;;;;;1.60;1.50;;;10.00;99.90;;;;;;5051497;28;20180;-70
2021/11/21 10:27:12;;;;;;;1.10;1.00;;;10.10;99.90;;;;;;5047972;28;20417;-70
2021/11/21 10:29:43;;;;;;;2.03;1.83;;;10.20;99.90;;;;;;5038403;28;20767;-70
2021/11/21 10:32:34;;;;;;;1.67;0.70;;;10.20;99.90;;;;;;5049925;28;20488;-70
2021/11/21 10:35:06;;;;;;;1.33;0.93;;;10.30;99.90;;;;;;5050577;28;20654;-70
2021/11/21 10:37:38;;;;;;;0.70;0.50;;;10.40;99.90;;;;;;5050313;28;20437;-70
2021/11/21 10:40:07;;;;;;;0.70;0.70;;;10.40;99.90;;;;;;5049684;28;20464;-70
2021/11/21 10:42:42;;;;;;;0.83;0.77;;;10.50;99.90;;;;;;5051062;28;20463;-70
2021/11/21 10:45:11;;;;;;;1.30;0.60;;;10.50;99.90;;;;;;5049996;28;20428;-69
2021/11/21 10:47:50;;;;;;;0.87;0.83;;;10.50;99.90;;;;;;5052130;28;20433;-69
2021/11/21 10:50:37;;;;;;;1.37;1.27;;;10.50;99.90;;;;;;5049144;28;20449;-69
2021/11/21 10:53:07;;;;;;;1.47;0.90;;;10.60;99.90;;;;;;5046349;28;20433;-69
2021/11/21 10:55:33;;;;;;;1.10;1.00;;;10.50;99.90;;;;;;5050827;28;20441;-69
2021/11/21 10:58:16;;;;;;;1.47;0.70;;;10.60;99.90;;;;;;5128490;27;20584;-69
2021/11/21 11:00:43;;;;;;;2.80;0.97;;;10.60;99.90;;;;;;5125370;27;20535;-69
2021/11/21 11:03:20;;;;;;;3.30;3.10;;;10.60;99.90;;;;;;5106729;28;20432;-69
2021/11/21 11:05:46;;;;;;;2.60;1.30;;;10.60;99.90;;;;;;5111249;28;20967;-69
2021/11/21 11:08:23;;;;;;;3.03;2.40;;;10.70;99.90;;;;;;5118323;28;20437;-69
2021/11/21 11:10:49;;;;;;;0.70;0.50;;;10.70;99.90;;;;;;5113673;27;20443;-69
2021/11/21 11:13:15;;;;;;;0.70;0.60;;;10.70;99.90;;;;;;5127248;28;20877;-68
2021/11/21 11:15:45;;;;;;;1.43;1.17;;;10.70;99.90;;;;;;5118524;28;20426;-69
2021/11/21 11:18:14;;;;;;;0.70;0.60;;;10.70;99.90;;;;;;5121933;28;20176;-70
2021/11/21 11:20:53;;;;;;;0.90;0.70;;;10.70;99.90;;;;;;5120705;27;20855;-69
2021/11/21 11:23:20;;;;;;;0.70;0.50;;;10.70;99.90;;;;;;5117560;28;21042;-69
2021/11/21 11:25:47;;;;;;;1.63;1.53;;;10.70;99.90;;;;;;5112063;28;20431;-70
2021/11/21 11:28:19;;;;;;;0.70;0.50;;;10.70;99.90;;;;;;5109049;28;20458;-69
2021/11/21 11:30:47;;;;;;;1.27;1.17;;;10.70;99.90;;;;;;5121018;27;20862;-69
2021/11/21 11:33:21;;;;;;;0.80;0.73;;;10.60;99.90;;;;;;5114203;28;20434;-69
2021/11/21 11:35:53;;;;;;;0.70;0.60;;;10.50;99.90;;;;;;5096162;28;20843;-69
2021/11/21 11:38:24;;;;;;;1.97;0.67;;;10.50;99.90;;;;;;5109229;28;20437;-69
2021/11/21 11:40:55;;;;;;;0.70;0.53;;;10.60;99.90;;;;;;5120971;27;20505;-69
2021/11/21 11:43:23;;;;;;;0.70;0.50;;;10.50;99.90;;;;;;5121866;28;20506;-68
2021/11/21 11:45:52;;;;;;;1.30;1.20;;;10.50;99.90;;;;;;5118596;28;20433;-69
2021/11/21 11:48:33;;;;;;;2.70;1.53;;;10.50;99.90;;;;;;5117248;28;20461;-69
2021/11/21 11:51:03;;;;;;;2.30;0.80;;;10.50;99.90;;;;;;5101708;28;20514;-69
2021/11/21 11:53:44;;;;;;;0.80;0.70;;;10.70;99.90;;;;;;5120370;28;20421;-69
2021/11/21 11:56:25;;;;;;;1.33;1.23;;;10.70;99.90;;;;;;5119795;28;20458;-69
2021/11/21 11:59:02;;;;;;;0.70;0.60;;;10.80;99.90;;;;;;5124723;27;20762;-69
2021/11/21 12:01:38;;;;;;;1.40;1.30;;;10.90;99.90;;;;;;5097704;28;20422;-69
2021/11/21 12:04:05;;;;;;;0.70;0.50;;;10.90;99.90;;;;;;5126361;28;20767;-69
2021/11/21 12:06:49;;;;;;;1.03;0.80;;;11.00;99.90;;;;;;5113410;28;20523;-69
2021/11/21 12:09:32;;;;;;;1.03;0.93;;;11.00;99.90;;;;;;5102323;28;20455;-69
2021/11/21 12:12:17;;;;;;;0.70;0.50;;;11.10;99.90;;;;;;5100416;28;20863;-69
2021/11/21 12:14:46;;;;;;;1.33;0.60;;;11.10;99.90;;;;;;5096220;28;20422;-69
2021/11/21 12:17:19;;;;;;;0.80;0.63;;;10.90;99.90;;;;;;5098524;28;20454;-69
2021/11/21 12:19:49;;;;;;;0.90;0.60;;;10.90;99.90;;;;;;5107909;28;20499;-69
2021/11/21 12:22:24;;;;;;;0.70;0.50;;;10.90;99.90;;;;;;5103361;28;20422;-69
2021/11/21 12:24:53;;;;;;;0.80;0.80;;;10.90;99.90;;;;;;5098697;28;20441;-69
2021/11/21 12:27:28;;;;;;;0.70;0.60;;;11.00;99.90;;;;;;5109850;28;20434;-69
2021/11/21 12:30:10;;;;;;;1.57;1.47;;;10.90;99.90;;;;;;5100556;28;20532;-69
2021/11/21 12:32:55;;;;;;;0.70;0.60;;;10.80;99.90;;;;;;5108068;28;20430;-69
2021/11/21 12:35:25;;;;;;;0.70;0.50;;;10.70;99.90;;;;;;5098168;28;20472;-69
2021/11/21 12:37:52;;;;;;;0.90;0.60;;;10.50;99.90;;;;;;5097700;28;20443;-69
2021/11/21 12:40:45;;;;;;;0.70;0.50;;;10.40;99.90;;;;;;5098615;28;20439;-68
2021/11/21 12:43:14;;;;;;;0.90;0.90;;;10.20;99.90;;;;;;5108995;28;20431;-68
2021/11/21 12:45:42;;;;;;;0.70;0.50;;;10.10;99.90;;;;;;5107830;28;20992;-69
2021/11/21 12:48:09;;;;;;;0.73;0.73;;;9.90;99.90;;;;;;5099215;28;20459;-69
2021/11/21 12:50:39;;;;;;;0.70;0.60;;;9.90;99.90;;;;;;5105527;28;20455;-69
2021/11/21 12:53:13;;;;;;;0.70;0.50;;;10.00;99.90;;;;;;5096262;28;20512;-69
2021/11/21 12:55:46;;;;;;;0.90;0.70;;;10.10;99.90;;;;;;5116361;28;20836;-70
2021/11/21 12:58:21;;;;;;;0.97;0.80;;;10.10;99.90;;;;;;5108736;27;21020;-69